Long Pond Township, Maine
Current Conditions -  °F | °C
As of 12:00 AM on Monday 20 Oct 2014 (Local Time) from CYSC Reporting Station
Overcast Overcast  
Wind Chill: 29°   Ceiling: 4700
Heat Index: 37°   Visibility: 9mi
Dew Point: 28°   Wind: 15mph
Humidity: 70%   Direction: 290°WNW
Pressure: 29.89"   Gusts: NA
Location:  45.7142°N, 70.304°W
Report Text: CYSC 200400Z AUTO 29013KT 9SM OVC047 03/M02 A2989 RMK SLP130
Loading
Personal Weather Stations






























Interactive Weather Map
Tropical Storm Tracking
New forecast layout! Learn more

10-Day Weather Forecast

Advertisements
Track Severe Weather on mobile